sensor_id;sensor_type;location;lat;lon;timestamp;pressure;altitude;pressure_sealevel;temperature;humidity
24013;BME280;12220;50.194;18.948;2023-03-26T00:01:31;100906.99;;;9.34;63.45
24013;BME280;12220;50.194;18.948;2023-03-26T00:03:36;100681.87;;;8.06;63.50
24013;BME280;12220;50.194;18.948;2023-03-26T00:05:40;100900.66;;;9.34;63.52
24013;BME280;12220;50.194;18.948;2023-03-26T00:07:42;100900.66;;;9.34;63.63
24013;BME280;12220;50.194;18.948;2023-03-26T00:09:45;100908.76;;;9.35;63.52
24013;BME280;12220;50.194;18.948;2023-03-26T00:11:47;100907.95;;;9.33;63.72
24013;BME280;12220;50.194;18.948;2023-03-26T00:13:49;100913.42;;;9.33;63.61
24013;BME280;12220;50.194;18.948;2023-03-26T00:15:57;100914.31;;;9.34;63.71
24013;BME280;12220;50.194;18.948;2023-03-26T00:18:01;100923.39;;;9.34;63.64
24013;BME280;12220;50.194;18.948;2023-03-26T00:20:03;100928.85;;;9.34;63.62
24013;BME280;12220;50.194;18.948;2023-03-26T00:22:05;100935.98;;;9.37;63.61
24013;BME280;12220;50.194;18.948;2023-03-26T00:24:11;100933.92;;;9.40;63.62
24013;BME280;12220;50.194;18.948;2023-03-26T00:26:17;100918.23;;;9.44;63.76
24013;BME280;12220;50.194;18.948;2023-03-26T00:28:19;100913.54;;;9.46;63.68
24013;BME280;12220;50.194;18.948;2023-03-26T00:30:23;100910.61;;;9.49;63.77
24013;BME280;12220;50.194;18.948;2023-03-26T00:32:26;100914.13;;;9.51;64.11
24013;BME280;12220;50.194;18.948;2023-03-26T00:34:30;100915.98;;;9.51;64.12
24013;BME280;12220;50.194;18.948;2023-03-26T00:36:34;100909.74;;;9.49;64.31
24013;BME280;12220;50.194;18.948;2023-03-26T00:38:37;100903.40;;;9.48;64.16
24013;BME280;12220;50.194;18.948;2023-03-26T00:40:39;100905.14;;;9.49;64.26
24013;BME280;12220;50.194;18.948;2023-03-26T00:42:47;100902.24;;;9.52;64.32
24013;BME280;12220;50.194;18.948;2023-03-26T00:44:49;100895.77;;;9.53;64.37
24013;BME280;12220;50.194;18.948;2023-03-26T00:46:57;100896.67;;;9.54;64.35
24013;BME280;12220;50.194;18.948;2023-03-26T00:48:59;100899.21;;;9.57;64.34
24013;BME280;12220;50.194;18.948;2023-03-26T00:51:04;100891.00;;;9.57;64.34
24013;BME280;12220;50.194;18.948;2023-03-26T00:53:06;100885.34;;;9.60;64.42
24013;BME280;12220;50.194;18.948;2023-03-26T00:55:09;100882.60;;;9.60;64.41
24013;BME280;12220;50.194;18.948;2023-03-26T00:57:11;100871.66;;;9.60;64.38
24013;BME280;12220;50.194;18.948;2023-03-26T00:59:17;100878.00;;;9.60;64.33
24013;BME280;12220;50.194;18.948;2023-03-26T01:01:23;100869.91;;;9.59;64.31
24013;BME280;12220;50.194;18.948;2023-03-26T01:03:31;100870.10;;;9.56;64.33
24013;BME280;12220;50.194;18.948;2023-03-26T01:05:43;100865.61;;;9.55;64.32
24013;BME280;12220;50.194;18.948;2023-03-26T01:07:45;100858.66;;;9.49;64.48
24013;BME280;12220;50.194;18.948;2023-03-26T01:09:56;100868.23;;;9.42;64.35
24013;BME280;12220;50.194;18.948;2023-03-26T01:11:59;100859.56;;;9.35;64.34
24013;BME280;12220;50.194;18.948;2023-03-26T01:14:09;100858.86;;;9.32;64.39
24013;BME280;12220;50.194;18.948;2023-03-26T01:18:24;100853.12;;;9.22;64.55
24013;BME280;12220;50.194;18.948;2023-03-26T01:20:33;100852.41;;;9.18;64.50
24013;BME280;12220;50.194;18.948;2023-03-26T01:22:43;100847.34;;;9.12;64.54
24013;BME280;12220;50.194;18.948;2023-03-26T01:24:46;100851.43;;;9.05;64.66
24013;BME280;12220;50.194;18.948;2023-03-26T01:31:31;100864.29;;;8.88;64.71
24013;BME280;12220;50.194;18.948;2023-03-26T01:33:45;100851.88;;;8.83;64.91
24013;BME280;12220;50.194;18.948;2023-03-26T01:40:45;100847.87;;;8.74;64.80
24013;BME280;12220;50.194;18.948;2023-03-26T01:45:25;100852.41;;;8.73;64.90
24013;BME280;12220;50.194;18.948;2023-03-26T01:47:29;100848.92;;;8.71;65.07
24013;BME280;12220;50.194;18.948;2023-03-26T01:49:31;100846.38;;;8.68;64.87
24013;BME280;12220;50.194;18.948;2023-03-26T01:51:34;100850.07;;;8.67;64.98
24013;BME280;12220;50.194;18.948;2023-03-26T01:53:45;100852.90;;;8.66;64.90
24013;BME280;12220;50.194;18.948;2023-03-26T01:58:26;100847.52;;;8.64;64.98
24013;BME280;12220;50.194;18.948;2023-03-26T02:05:32;100855.29;;;8.56;65.23
24013;BME280;12220;50.194;18.948;2023-03-26T02:07:52;100846.52;;;8.51;65.43
24013;BME280;12220;50.194;18.948;2023-03-26T02:10:12;100845.65;;;8.50;65.36
24013;BME280;12220;50.194;18.948;2023-03-26T02:12:16;100841.25;;;8.48;65.54
24013;BME280;12220;50.194;18.948;2023-03-26T02:14:19;100839.58;;;8.45;66.01
24013;BME280;12220;50.194;18.948;2023-03-26T02:16:21;100845.99;;;8.44;65.83
24013;BME280;12220;50.194;18.948;2023-03-26T02:18:23;100851.45;;;8.44;65.96
24013;BME280;12220;50.194;18.948;2023-03-26T02:20:25;100841.43;;;8.45;66.11
24013;BME280;12220;50.194;18.948;2023-03-26T02:22:30;100847.75;;;8.45;66.09
24013;BME280;12220;50.194;18.948;2023-03-26T02:24:31;100846.70;;;8.48;66.00
24013;BME280;12220;50.194;18.948;2023-03-26T02:26:38;100845.72;;;8.49;66.02
24013;BME280;12220;50.194;18.948;2023-03-26T02:28:40;100846.61;;;8.49;66.01
24013;BME280;12220;50.194;18.948;2023-03-26T02:30:42;100852.84;;;8.51;65.92
24013;BME280;12220;50.194;18.948;2023-03-26T02:32:47;100852.66;;;8.54;65.95
24013;BME280;12220;50.194;18.948;2023-03-26T02:34:53;100853.55;;;8.55;66.11
24013;BME280;12220;50.194;18.948;2023-03-26T02:36:55;100856.29;;;8.55;66.08
24013;BME280;12220;50.194;18.948;2023-03-26T02:38:57;100858.02;;;8.56;66.04
24013;BME280;12220;50.194;18.948;2023-03-26T02:41:01;100848.77;;;8.59;66.17
24013;BME280;12220;50.194;18.948;2023-03-26T02:43:08;100850.55;;;8.60;66.31
24013;BME280;12220;50.194;18.948;2023-03-26T02:45:10;100852.31;;;8.61;66.38
24013;BME280;12220;50.194;18.948;2023-03-26T02:47:11;100848.59;;;8.62;66.38
24013;BME280;12220;50.194;18.948;2023-03-26T02:49:13;100844.13;;;8.61;66.57
24013;BME280;12220;50.194;18.948;2023-03-26T02:51:23;100840.50;;;8.60;66.62
24013;BME280;12220;50.194;18.948;2023-03-26T02:55:34;100826.16;;;8.57;66.67
24013;BME280;12220;50.194;18.948;2023-03-26T03:00:41;100824.68;;;8.51;66.58
24013;BME280;12220;50.194;18.948;2023-03-26T03:03:10;100824.68;;;8.51;66.79
24013;BME280;12220;50.194;18.948;2023-03-26T03:10:27;100826.80;;;8.46;66.81
24013;BME280;12220;50.194;18.948;2023-03-26T03:25:15;100822.14;;;8.48;66.87
24013;BME280;12220;50.194;18.948;2023-03-26T03:27:45;100813.96;;;8.48;66.76
24013;BME280;12220;50.194;18.948;2023-03-26T03:30:12;100814.05;;;8.46;66.98
24013;BME280;12220;50.194;18.948;2023-03-26T03:32:39;100805.95;;;8.45;66.92
24013;BME280;12220;50.194;18.948;2023-03-26T03:37:24;100805.87;;;8.46;66.89
24013;BME280;12220;50.194;18.948;2023-03-26T03:42:20;100818.61;;;8.46;66.75
24013;BME280;12220;50.194;18.948;2023-03-26T03:47:26;100824.21;;;8.43;66.70
24013;BME280;12220;50.194;18.948;2023-03-26T03:49:57;100826.94;;;8.43;66.74
24013;BME280;12220;50.194;18.948;2023-03-26T03:54:54;100832.41;;;8.43;66.90
24013;BME280;12220;50.194;18.948;2023-03-26T03:57:31;100831.53;;;8.42;66.86
24013;BME280;12220;50.194;18.948;2023-03-26T04:00:02;100834.45;;;8.39;67.46
24013;BME280;12220;50.194;18.948;2023-03-26T04:02:44;100833.55;;;8.38;67.23
24013;BME280;12220;50.194;18.948;2023-03-26T04:05:07;100836.28;;;8.38;67.43
24013;BME280;12220;50.194;18.948;2023-03-26T04:10:08;100830.73;;;8.40;67.34
24013;BME280;12220;50.194;18.948;2023-03-26T04:17:35;100613.55;;;7.16;67.32
24013;BME280;12220;50.194;18.948;2023-03-26T04:22:49;100830.51;;;8.45;67.28
24013;BME280;12220;50.194;18.948;2023-03-26T04:25:17;100828.66;;;8.45;67.35
24013;BME280;12220;50.194;18.948;2023-03-26T04:32:49;100819.72;;;8.42;67.33
24013;BME280;12220;50.194;18.948;2023-03-26T04:37:36;100822.55;;;8.40;67.44
24013;BME280;12220;50.194;18.948;2023-03-26T04:39:41;100819.05;;;8.38;67.32
24013;BME280;12220;50.194;18.948;2023-03-26T04:41:45;100827.13;;;8.40;67.29
24013;BME280;12220;50.194;18.948;2023-03-26T04:43:47;100821.78;;;8.38;67.37
24013;BME280;12220;50.194;18.948;2023-03-26T04:45:50;100834.45;;;8.39;67.24
24013;BME280;12220;50.194;18.948;2023-03-26T04:47:52;100830.82;;;8.38;67.28
24013;BME280;12220;50.194;18.948;2023-03-26T04:49:54;100827.23;;;8.38;67.19
24013;BME280;12220;50.194;18.948;2023-03-26T04:52:02;100830.82;;;8.38;67.08
24013;BME280;12220;50.194;18.948;2023-03-26T04:54:04;100832.59;;;8.40;67.07
24013;BME280;12220;50.194;18.948;2023-03-26T04:58:23;100820.80;;;8.39;66.89
24013;BME280;12220;50.194;18.948;2023-03-26T05:00:32;100826.27;;;8.39;66.83
24013;BME280;12220;50.194;18.948;2023-03-26T05:02:38;100824.41;;;8.40;66.81
24013;BME280;12220;50.194;18.948;2023-03-26T05:04:42;100821.68;;;8.40;66.74
24013;BME280;12220;50.194;18.948;2023-03-26T05:06:48;100817.98;;;8.41;66.72
24013;BME280;12220;50.194;18.948;2023-03-26T05:08:49;100821.48;;;8.43;66.68
24013;BME280;12220;50.194;18.948;2023-03-26T05:10:56;100821.44;;;8.44;66.61
24013;BME280;12220;50.194;18.948;2023-03-26T05:12:58;100817.80;;;8.44;66.61
24013;BME280;12220;50.194;18.948;2023-03-26T05:14:59;100815.07;;;8.44;66.56
24013;BME280;12220;50.194;18.948;2023-03-26T05:17:02;100822.23;;;8.46;66.45
24013;BME280;12220;50.194;18.948;2023-03-26T05:19:11;100820.47;;;8.45;66.41
24013;BME280;12220;50.194;18.948;2023-03-26T05:21:12;100818.71;;;8.44;66.46
24013;BME280;12220;50.194;18.948;2023-03-26T05:23:14;100818.61;;;8.46;66.37
24013;BME280;12220;50.194;18.948;2023-03-26T05:25:17;100829.34;;;8.49;66.25
24013;BME280;12220;50.194;18.948;2023-03-26T05:27:23;100826.45;;;8.52;66.23
24013;BME280;12220;50.194;18.948;2023-03-26T05:29:24;100829.17;;;8.52;66.16
24013;BME280;12220;50.194;18.948;2023-03-26T05:31:27;100829.17;;;8.52;66.11
24013;BME280;12220;50.194;18.948;2023-03-26T05:33:30;100826.35;;;8.53;66.03
24013;BME280;12220;50.194;18.948;2023-03-26T05:35:38;100823.72;;;8.52;65.95
24013;BME280;12220;50.194;18.948;2023-03-26T05:37:40;100824.88;;;8.48;65.88
24013;BME280;12220;50.194;18.948;2023-03-26T05:39:45;100833.05;;;8.48;65.79
24013;BME280;12220;50.194;18.948;2023-03-26T05:41:46;100827.51;;;8.49;65.84
24013;BME280;12220;50.194;18.948;2023-03-26T05:43:53;100830.05;;;8.52;65.81
24013;BME280;12220;50.194;18.948;2023-03-26T05:45:55;100825.36;;;8.54;65.75
24013;BME280;12220;50.194;18.948;2023-03-26T05:47:56;100834.36;;;8.57;65.73
24013;BME280;12220;50.194;18.948;2023-03-26T05:49:58;100831.43;;;8.60;65.72
24013;BME280;12220;50.194;18.948;2023-03-26T05:52:08;100826.66;;;8.63;65.68
24013;BME280;12220;50.194;18.948;2023-03-26T05:54:10;100833.02;;;8.64;65.52
24013;BME280;12220;50.194;18.948;2023-03-26T05:56:12;100839.16;;;8.67;65.40
24013;BME280;12220;50.194;18.948;2023-03-26T05:58:13;100831.67;;;8.71;65.35
24013;BME280;12220;50.194;18.948;2023-03-26T06:00:23;100837.80;;;8.75;65.21
24013;BME280;12220;50.194;18.948;2023-03-26T06:02:25;100833.41;;;8.72;65.28
24013;BME280;12220;50.194;18.948;2023-03-26T06:04:26;100832.35;;;8.75;65.16
24013;BME280;12220;50.194;18.948;2023-03-26T06:06:28;100838.52;;;8.78;65.17
24013;BME280;12220;50.194;18.948;2023-03-26T06:08:38;100849.25;;;8.81;65.15
24013;BME280;12220;50.194;18.948;2023-03-26T06:10:41;100846.42;;;8.83;65.08
24013;BME280;12220;50.194;18.948;2023-03-26T06:12:42;100846.33;;;8.84;64.87
24013;BME280;12220;50.194;18.948;2023-03-26T06:14:44;100838.80;;;8.88;64.87
24013;BME280;12220;50.194;18.948;2023-03-26T06:16:53;100846.04;;;8.89;64.76
24013;BME280;12220;50.194;18.948;2023-03-26T06:18:54;100839.70;;;8.88;64.69
24013;BME280;12220;50.194;18.948;2023-03-26T06:20:56;100839.61;;;8.90;64.67
24013;BME280;12220;50.194;18.948;2023-03-26T06:22:58;100845.84;;;8.92;64.60
24013;BME280;12220;50.194;18.948;2023-03-26T06:25:08;100841.20;;;8.94;64.53
24013;BME280;12220;50.194;18.948;2023-03-26T06:27:10;100848.28;;;8.97;64.63
24013;BME280;12220;50.194;18.948;2023-03-26T06:29:14;100844.39;;;9.01;64.70
24013;BME280;12220;50.194;18.948;2023-03-26T06:31:16;100839.73;;;9.03;64.60
24013;BME280;12220;50.194;18.948;2023-03-26T06:33:23;100836.61;;;9.09;64.46
24013;BME280;12220;50.194;18.948;2023-03-26T06:35:24;100834.65;;;9.11;64.27
24013;BME280;12220;50.194;18.948;2023-03-26T06:37:26;100839.82;;;9.16;64.25
24013;BME280;12220;50.194;18.948;2023-03-26T06:39:28;100844.13;;;9.20;64.16
24013;BME280;12220;50.194;18.948;2023-03-26T06:41:38;100842.95;;;9.24;64.22
24013;BME280;12220;50.194;18.948;2023-03-26T06:43:40;100836.53;;;9.25;63.87
24013;BME280;12220;50.194;18.948;2023-03-26T06:45:42;100838.96;;;9.30;63.88
24013;BME280;12220;50.194;18.948;2023-03-26T06:47:44;100845.00;;;9.35;63.86
24013;BME280;12220;50.194;18.948;2023-03-26T06:49:53;100845.80;;;9.37;63.52
24013;BME280;12220;50.194;18.948;2023-03-26T06:51:54;100849.40;;;9.37;63.40
24013;BME280;12220;50.194;18.948;2023-03-26T06:53:57;100841.30;;;9.36;62.88
24013;BME280;12220;50.194;18.948;2023-03-26T06:55:58;100848.42;;;9.38;63.03
24013;BME280;12220;50.194;18.948;2023-03-26T06:58:10;100846.47;;;9.40;63.18
24013;BME280;12220;50.194;18.948;2023-03-26T07:00:13;100841.80;;;9.42;63.22
24013;BME280;12220;50.194;18.948;2023-03-26T07:02:14;100843.53;;;9.43;63.37
24013;BME280;12220;50.194;18.948;2023-03-26T07:04:16;100846.27;;;9.43;63.25
24013;BME280;12220;50.194;18.948;2023-03-26T07:06:23;100846.20;;;9.45;63.36
24013;BME280;12220;50.194;18.948;2023-03-26T07:08:24;100846.10;;;9.47;63.46
24013;BME280;12220;50.194;18.948;2023-03-26T07:10:26;100847.07;;;9.46;63.32
24013;BME280;12220;50.194;18.948;2023-03-26T07:12:27;100836.90;;;9.48;63.27
24013;BME280;12220;50.194;18.948;2023-03-26T07:14:38;100844.91;;;9.51;63.27
24013;BME280;12220;50.194;18.948;2023-03-26T07:16:39;100843.73;;;9.55;63.31
24013;BME280;12220;50.194;18.948;2023-03-26T07:18:41;100847.48;;;9.54;63.06
24013;BME280;12220;50.194;18.948;2023-03-26T07:20:44;100843.63;;;9.56;63.02
24013;BME280;12220;50.194;18.948;2023-03-26T07:22:53;100840.80;;;9.58;62.91
24013;BME280;12220;50.194;18.948;2023-03-26T07:24:55;100846.16;;;9.59;62.84
24013;BME280;12220;50.194;18.948;2023-03-26T07:31:33;100840.53;;;9.63;62.54
24013;BME280;12220;50.194;18.948;2023-03-26T07:33:48;100838.86;;;9.60;62.48
24013;BME280;12220;50.194;18.948;2023-03-26T07:45:23;100853.67;;;9.85;62.46
24013;BME280;12220;50.194;18.948;2023-03-26T07:47:38;100870.84;;;9.87;62.07
24013;BME280;12220;50.194;18.948;2023-03-26T07:49:42;100861.48;;;9.91;62.15
24013;BME280;12220;50.194;18.948;2023-03-26T07:51:46;100861.27;;;9.94;62.05
24013;BME280;12220;50.194;18.948;2023-03-26T07:53:47;100856.29;;;10.01;62.16
24013;BME280;12220;50.194;18.948;2023-03-26T07:58:34;100847.13;;;10.15;62.19
24013;BME280;12220;50.194;18.948;2023-03-26T08:00:44;100849.28;;;10.24;62.06
24013;BME280;12220;50.194;18.948;2023-03-26T08:05:30;100852.47;;;10.30;60.94
24013;BME280;12220;50.194;18.948;2023-03-26T08:07:51;100853.84;;;10.38;60.91
24013;BME280;12220;50.194;18.948;2023-03-26T08:10:11;100856.95;;;10.46;61.00
24013;BME280;12220;50.194;18.948;2023-03-26T08:14:56;100852.85;;;10.66;60.24
24013;BME280;12220;50.194;18.948;2023-03-26T08:19:37;100851.88;;;10.80;59.39
24013;BME280;12220;50.194;18.948;2023-03-26T08:21:54;100843.23;;;10.86;58.77
24013;BME280;12220;50.194;18.948;2023-03-26T08:28:35;100828.92;;;11.08;58.56
24013;BME280;12220;50.194;18.948;2023-03-26T08:30:39;100830.43;;;11.12;57.92
24013;BME280;12220;50.194;18.948;2023-03-26T08:32:41;100828.36;;;11.16;58.24
24013;BME280;12220;50.194;18.948;2023-03-26T08:34:48;100825.30;;;11.21;58.40
24013;BME280;12220;50.194;18.948;2023-03-26T08:36:49;100833.06;;;11.27;58.47
24013;BME280;12220;50.194;18.948;2023-03-26T08:38:51;100829.01;;;11.32;58.70
24013;BME280;12220;50.194;18.948;2023-03-26T08:50:35;100824.60;;;11.56;57.20
24013;BME280;12220;50.194;18.948;2023-03-26T08:55:11;100821.61;;;11.72;56.44
24013;BME280;12220;50.194;18.948;2023-03-26T09:02:19;100799.95;;;11.93;56.18
24013;BME280;12220;50.194;18.948;2023-03-26T09:16:26;100808.46;;;12.14;54.36
24013;BME280;12220;50.194;18.948;2023-03-26T09:18:50;100802.84;;;12.15;53.53
24013;BME280;12220;50.194;18.948;2023-03-26T09:35:12;100790.65;;;12.19;55.21
24013;BME280;12220;50.194;18.948;2023-03-26T09:37:24;100784.05;;;12.22;55.47
24013;BME280;12220;50.194;18.948;2023-03-26T09:39:45;100793.82;;;12.26;55.52
24013;BME280;12220;50.194;18.948;2023-03-26T09:55:32;100798.80;;;12.08;54.13
24013;BME280;12220;50.194;18.948;2023-03-26T10:00:15;100828.05;;;11.96;55.63
24013;BME280;12220;50.194;18.948;2023-03-26T10:05:43;100795.91;;;11.85;56.75
24013;BME280;12220;50.194;18.948;2023-03-26T10:09:42;100801.72;;;11.81;57.59
24013;BME280;12220;50.194;18.948;2023-03-26T10:40:19;100761.67;;;12.15;59.89
24013;BME280;12220;50.194;18.948;2023-03-26T10:42:42;100754.23;;;12.29;59.94
24013;BME280;12220;50.194;18.948;2023-03-26T10:49:43;100785.13;;;12.79;59.01
24013;BME280;12220;50.194;18.948;2023-03-26T10:51:58;100752.30;;;12.89;57.94
24013;BME280;12220;50.194;18.948;2023-03-26T10:54:13;100746.68;;;12.90;56.42
24013;BME280;12220;50.194;18.948;2023-03-26T10:58:30;100746.18;;;12.97;56.46
24013;BME280;12220;50.194;18.948;2023-03-26T11:00:40;100750.30;;;12.91;55.20
24013;BME280;12220;50.194;18.948;2023-03-26T11:14:12;100734.20;;;13.20;55.14
24013;BME280;12220;50.194;18.948;2023-03-26T11:16:24;100722.21;;;13.21;55.00
24013;BME280;12220;50.194;18.948;2023-03-26T11:25:26;100713.70;;;13.24;54.29
24013;BME280;12220;50.194;18.948;2023-03-26T11:27:49;100732.44;;;13.31;54.10
24013;BME280;12220;50.194;18.948;2023-03-26T11:30:17;100712.48;;;13.40;53.91
24013;BME280;12220;50.194;18.948;2023-03-26T11:32:26;100515.89;;;12.34;51.34
24013;BME280;12220;50.194;18.948;2023-03-26T11:34:50;100703.98;;;13.54;51.68
24013;BME280;12220;50.194;18.948;2023-03-26T11:36:48;100705.80;;;13.65;51.98
24013;BME280;12220;50.194;18.948;2023-03-26T11:38:53;100699.15;;;13.79;52.08
24013;BME280;12220;50.194;18.948;2023-03-26T11:40:59;100703.60;;;13.91;50.90
24013;BME280;12220;50.194;18.948;2023-03-26T11:43:12;100696.58;;;13.99;49.59
24013;BME280;12220;50.194;18.948;2023-03-26T11:45:21;100700.95;;;14.01;47.96
24013;BME280;12220;50.194;18.948;2023-03-26T11:49:37;100693.15;;;14.06;48.56
24013;BME280;12220;50.194;18.948;2023-03-26T11:51:40;100690.66;;;14.03;47.92
24013;BME280;12220;50.194;18.948;2023-03-26T11:53:50;100693.02;;;14.08;48.86
24013;BME280;12220;50.194;18.948;2023-03-26T11:56:04;100672.75;;;14.09;49.02
24013;BME280;12220;50.194;18.948;2023-03-26T12:00:22;100678.48;;;14.17;48.17
24013;BME280;12220;50.194;18.948;2023-03-26T12:02:38;100510.85;;;13.28;48.45
24013;BME280;12220;50.194;18.948;2023-03-26T12:04:45;100673.16;;;14.25;48.26
24013;BME280;12220;50.194;18.948;2023-03-26T12:06:58;100707.24;;;14.24;47.43
24013;BME280;12220;50.194;18.948;2023-03-26T12:11:18;100678.09;;;14.22;46.47
24013;BME280;12220;50.194;18.948;2023-03-26T12:13:32;100673.70;;;14.19;46.74
24013;BME280;12220;50.194;18.948;2023-03-26T12:15:41;100657.59;;;14.15;46.76
24013;BME280;12220;50.194;18.948;2023-03-26T12:17:47;100663.96;;;14.15;47.05
24013;BME280;12220;50.194;18.948;2023-03-26T12:19:53;100659.61;;;14.12;47.46
24013;BME280;12220;50.194;18.948;2023-03-26T12:21:54;100653.97;;;14.14;47.72
24013;BME280;12220;50.194;18.948;2023-03-26T12:24:02;100666.98;;;14.12;47.48
24013;BME280;12220;50.194;18.948;2023-03-26T12:26:16;100647.98;;;14.09;47.04
24013;BME280;12220;50.194;18.948;2023-03-26T12:28:20;100648.51;;;14.03;46.58
24013;BME280;12220;50.194;18.948;2023-03-26T12:30:26;100641.78;;;13.95;47.00
24013;BME280;12220;50.194;18.948;2023-03-26T12:32:38;100644.80;;;13.92;46.92
24013;BME280;12220;50.194;18.948;2023-03-26T12:34:44;100650.08;;;13.84;46.35
24013;BME280;12220;50.194;18.948;2023-03-26T12:36:52;100643.23;;;13.78;46.66
24013;BME280;12220;50.194;18.948;2023-03-26T12:38:57;100634.38;;;13.75;47.03
24013;BME280;12220;50.194;18.948;2023-03-26T12:41:13;100626.38;;;13.72;46.85
24013;BME280;12220;50.194;18.948;2023-03-26T12:43:27;100633.47;;;13.74;47.48
24013;BME280;12220;50.194;18.948;2023-03-26T12:45:39;100617.72;;;13.76;47.62
24013;BME280;12220;50.194;18.948;2023-03-26T12:47:42;100631.94;;;13.82;47.94
24013;BME280;12220;50.194;18.948;2023-03-26T12:49:44;100611.42;;;13.86;47.99
24013;BME280;12220;50.194;18.948;2023-03-26T12:51:50;100606.67;;;13.88;48.13
24013;BME280;12220;50.194;18.948;2023-03-26T13:07:49;100604.45;;;14.03;48.06
24013;BME280;12220;50.194;18.948;2023-03-26T13:17:03;100605.46;;;14.02;47.50
24013;BME280;12220;50.194;18.948;2023-03-26T13:21:47;100594.45;;;14.02;47.68
24013;BME280;12220;50.194;18.948;2023-03-26T13:35:48;100562.23;;;14.66;46.92
24013;BME280;12220;50.194;18.948;2023-03-26T13:43:12;100568.13;;;14.92;45.67
24013;BME280;12220;50.194;18.948;2023-03-26T13:44:49;100557.39;;;14.89;45.65
24013;BME280;12220;50.194;18.948;2023-03-26T13:46:58;100560.10;;;14.79;45.25
24013;BME280;12220;50.194;18.948;2023-03-26T13:51:22;100562.95;;;14.68;46.14
24013;BME280;12220;50.194;18.948;2023-03-26T13:53:46;100557.10;;;14.61;46.22
24013;BME280;12220;50.194;18.948;2023-03-26T13:55:58;100554.63;;;14.58;46.55
24013;BME280;12220;50.194;18.948;2023-03-26T13:58:14;100536.21;;;14.27;46.75
24013;BME280;12220;50.194;18.948;2023-03-26T14:00:23;100558.20;;;14.48;46.39
24013;BME280;12220;50.194;18.948;2023-03-26T14:02:39;100559.89;;;14.40;46.24
24013;BME280;12220;50.194;18.948;2023-03-26T14:04:46;100561.45;;;14.33;46.00
24013;BME280;12220;50.194;18.948;2023-03-26T14:06:56;100560.87;;;14.29;46.41
24013;BME280;12220;50.194;18.948;2023-03-26T14:09:18;100558.24;;;14.27;46.33
24013;BME280;12220;50.194;18.948;2023-03-26T14:11:34;100560.66;;;14.21;45.53
24013;BME280;12220;50.194;18.948;2023-03-26T14:25:48;100543.88;;;14.03;46.33
24013;BME280;12220;50.194;18.948;2023-03-26T14:42:13;100529.46;;;13.89;46.33
24013;BME280;12220;50.194;18.948;2023-03-26T14:53:54;100530.20;;;13.70;45.89
24013;BME280;12220;50.194;18.948;2023-03-26T15:03:00;100517.04;;;13.74;46.65
24013;BME280;12220;50.194;18.948;2023-03-26T15:07:22;100509.00;;;13.82;46.49
24013;BME280;12220;50.194;18.948;2023-03-26T15:23:43;100500.57;;;14.05;46.63
24013;BME280;12220;50.194;18.948;2023-03-26T15:28:41;100490.25;;;13.97;43.81
24013;BME280;12220;50.194;18.948;2023-03-26T15:37:48;100491.10;;;13.98;43.69
24013;BME280;12220;50.194;18.948;2023-03-26T15:42:30;100486.77;;;13.95;43.47
24013;BME280;12220;50.194;18.948;2023-03-26T15:44:56;100481.27;;;13.95;43.27
24013;BME280;12220;50.194;18.948;2023-03-26T15:49:39;100482.81;;;13.88;42.98
24013;BME280;12220;50.194;18.948;2023-03-26T15:54:15;100485.95;;;13.83;42.97
24013;BME280;12220;50.194;18.948;2023-03-26T16:04:00;100476.82;;;13.83;43.71
24013;BME280;12220;50.194;18.948;2023-03-26T16:08:31;100465.09;;;13.81;43.71
24013;BME280;12220;50.194;18.948;2023-03-26T16:15:29;100470.12;;;13.75;44.16
24013;BME280;12220;50.194;18.948;2023-03-26T16:25:11;100461.14;;;13.73;44.41
24013;BME280;12220;50.194;18.948;2023-03-26T16:27:24;100457.49;;;13.73;44.52
24013;BME280;12220;50.194;18.948;2023-03-26T16:29:29;100467.65;;;13.72;44.66
24013;BME280;12220;50.194;18.948;2023-03-26T16:31:32;100466.92;;;13.70;44.51
24013;BME280;12220;50.194;18.948;2023-03-26T16:33:47;100467.91;;;13.69;44.68
24013;BME280;12220;50.194;18.948;2023-03-26T16:35:57;100471.66;;;13.68;44.78
24013;BME280;12220;50.194;18.948;2023-03-26T16:38:13;100470.94;;;13.66;44.80
24013;BME280;12220;50.194;18.948;2023-03-26T16:42:33;100468.32;;;13.65;45.06
24013;BME280;12220;50.194;18.948;2023-03-26T16:51:26;100468.52;;;13.52;44.99
24013;BME280;12220;50.194;18.948;2023-03-26T16:53:40;100473.40;;;13.48;45.09
24013;BME280;12220;50.194;18.948;2023-03-26T17:00:29;100475.41;;;13.46;45.56
24013;BME280;12220;50.194;18.948;2023-03-26T17:07:42;100470.47;;;13.29;45.32
24013;BME280;12220;50.194;18.948;2023-03-26T17:12:15;100471.64;;;13.15;45.74
24013;BME280;12220;50.194;18.948;2023-03-26T17:14:53;100470.28;;;13.09;45.88
24013;BME280;12220;50.194;18.948;2023-03-26T17:19:23;100454.58;;;13.00;46.17
24013;BME280;12220;50.194;18.948;2023-03-26T17:24:06;100469.59;;;12.96;46.23
24013;BME280;12220;50.194;18.948;2023-03-26T17:26:21;100462.59;;;12.91;46.41
24013;BME280;12220;50.194;18.948;2023-03-26T17:30:46;100463.75;;;12.89;46.52
24013;BME280;12220;50.194;18.948;2023-03-26T17:35:15;100473.77;;;12.79;46.56
24013;BME280;12220;50.194;18.948;2023-03-26T17:41:53;100475.90;;;12.64;46.68
24013;BME280;12220;50.194;18.948;2023-03-26T17:46:38;100464.58;;;12.57;46.87
24013;BME280;12220;50.194;18.948;2023-03-26T17:48:59;100473.20;;;12.52;46.97
24013;BME280;12220;50.194;18.948;2023-03-26T17:53:35;100475.44;;;12.47;47.21
24013;BME280;12220;50.194;18.948;2023-03-26T17:55:38;100468.20;;;12.46;47.32
24013;BME280;12220;50.194;18.948;2023-03-26T17:57:46;100470.33;;;12.43;47.30